sensor_id;sensor_type;location;lat;lon;timestamp;P1;durP1;ratioP1;P2;durP2;ratioP2
12910;SDS011;6523;49.758;6.120;2023-03-13T00:01:55;7.93;;;3.07;;
12910;SDS011;6523;49.758;6.120;2023-03-13T00:04:20;11.83;;;2.87;;
12910;SDS011;6523;49.758;6.120;2023-03-13T00:06:46;8.47;;;2.70;;
12910;SDS011;6523;49.758;6.120;2023-03-13T00:09:13;10.20;;;2.93;;
12910;SDS011;6523;49.758;6.120;2023-03-13T00:11:39;10.90;;;3.17;;
12910;SDS011;6523;49.758;6.120;2023-03-13T00:14:05;9.83;;;2.40;;
12910;SDS011;6523;49.758;6.120;2023-03-13T00:16:31;9.10;;;2.90;;
12910;SDS011;6523;49.758;6.120;2023-03-13T00:18:59;11.67;;;3.13;;
12910;SDS011;6523;49.758;6.120;2023-03-13T00:21:26;10.87;;;2.97;;
12910;SDS011;6523;49.758;6.120;2023-03-13T00:23:53;8.73;;;3.27;;
12910;SDS011;6523;49.758;6.120;2023-03-13T00:26:23;11.53;;;2.70;;
12910;SDS011;6523;49.758;6.120;2023-03-13T00:28:50;7.17;;;2.43;;
12910;SDS011;6523;49.758;6.120;2023-03-13T00:33:47;9.90;;;2.70;;
12910;SDS011;6523;49.758;6.120;2023-03-13T00:36:19;11.20;;;3.00;;
12910;SDS011;6523;49.758;6.120;2023-03-13T00:38:46;12.97;;;3.07;;
12910;SDS011;6523;49.758;6.120;2023-03-13T00:41:20;10.03;;;2.80;;
12910;SDS011;6523;49.758;6.120;2023-03-13T00:43:47;9.40;;;2.90;;
12910;SDS011;6523;49.758;6.120;2023-03-13T00:46:15;9.87;;;2.30;;
12910;SDS011;6523;49.758;6.120;2023-03-13T00:48:42;7.23;;;3.00;;
12910;SDS011;6523;49.758;6.120;2023-03-13T00:51:07;8.27;;;2.63;;
12910;SDS011;6523;49.758;6.120;2023-03-13T00:53:34;6.07;;;2.20;;
12910;SDS011;6523;49.758;6.120;2023-03-13T00:56:00;9.23;;;2.37;;
12910;SDS011;6523;49.758;6.120;2023-03-13T00:58:28;5.60;;;2.43;;
12910;SDS011;6523;49.758;6.120;2023-03-13T01:00:55;9.33;;;2.37;;
12910;SDS011;6523;49.758;6.120;2023-03-13T01:03:22;4.80;;;1.73;;
12910;SDS011;6523;49.758;6.120;2023-03-13T01:05:59;8.33;;;2.07;;
12910;SDS011;6523;49.758;6.120;2023-03-13T01:08:26;3.33;;;1.93;;
12910;SDS011;6523;49.758;6.120;2023-03-13T01:10:59;5.93;;;1.73;;
12910;SDS011;6523;49.758;6.120;2023-03-13T01:13:26;3.53;;;1.57;;
12910;SDS011;6523;49.758;6.120;2023-03-13T01:15:53;9.13;;;1.90;;
12910;SDS011;6523;49.758;6.120;2023-03-13T01:18:18;8.27;;;2.30;;
12910;SDS011;6523;49.758;6.120;2023-03-13T01:20:44;3.67;;;1.70;;
12910;SDS011;6523;49.758;6.120;2023-03-13T01:23:09;6.50;;;1.97;;
12910;SDS011;6523;49.758;6.120;2023-03-13T01:25:35;4.70;;;1.73;;
12910;SDS011;6523;49.758;6.120;2023-03-13T01:28:02;5.60;;;1.70;;
12910;SDS011;6523;49.758;6.120;2023-03-13T01:30:28;3.80;;;2.00;;
12910;SDS011;6523;49.758;6.120;2023-03-13T01:32:53;3.70;;;1.67;;
12910;SDS011;6523;49.758;6.120;2023-03-13T01:35:19;3.90;;;1.80;;
12910;SDS011;6523;49.758;6.120;2023-03-13T01:37:45;3.57;;;1.63;;
12910;SDS011;6523;49.758;6.120;2023-03-13T01:40:10;2.67;;;1.20;;
12910;SDS011;6523;49.758;6.120;2023-03-13T01:42:56;2.50;;;1.40;;
12910;SDS011;6523;49.758;6.120;2023-03-13T01:50:54;3.53;;;1.30;;
12910;SDS011;6523;49.758;6.120;2023-03-13T01:53:23;1.43;;;1.33;;
12910;SDS011;6523;49.758;6.120;2023-03-13T01:55:50;3.33;;;1.20;;
12910;SDS011;6523;49.758;6.120;2023-03-13T01:58:16;1.63;;;1.10;;
12910;SDS011;6523;49.758;6.120;2023-03-13T02:00:42;1.53;;;1.17;;
12910;SDS011;6523;49.758;6.120;2023-03-13T02:03:10;2.27;;;1.17;;
12910;SDS011;6523;49.758;6.120;2023-03-13T02:05:39;2.27;;;1.00;;
12910;SDS011;6523;49.758;6.120;2023-03-13T02:08:11;2.50;;;1.17;;
12910;SDS011;6523;49.758;6.120;2023-03-13T02:13:57;2.10;;;1.47;;
12910;SDS011;6523;49.758;6.120;2023-03-13T02:16:24;1.87;;;1.50;;
12910;SDS011;6523;49.758;6.120;2023-03-13T02:18:50;2.13;;;1.40;;
12910;SDS011;6523;49.758;6.120;2023-03-13T02:21:51;2.10;;;1.90;;
12910;SDS011;6523;49.758;6.120;2023-03-13T02:26:41;1.60;;;1.50;;
12910;SDS011;6523;49.758;6.120;2023-03-13T02:29:07;1.40;;;1.30;;
12910;SDS011;6523;49.758;6.120;2023-03-13T02:31:42;1.60;;;1.50;;
12910;SDS011;6523;49.758;6.120;2023-03-13T02:34:08;2.50;;;2.03;;
12910;SDS011;6523;49.758;6.120;2023-03-13T02:36:36;1.57;;;1.23;;
12910;SDS011;6523;49.758;6.120;2023-03-13T02:39:02;1.53;;;1.43;;
12910;SDS011;6523;49.758;6.120;2023-03-13T02:41:30;1.53;;;1.10;;
12910;SDS011;6523;49.758;6.120;2023-03-13T02:43:58;1.40;;;1.20;;
12910;SDS011;6523;49.758;6.120;2023-03-13T02:46:23;1.17;;;1.07;;
12910;SDS011;6523;49.758;6.120;2023-03-13T02:48:50;1.23;;;1.10;;
12910;SDS011;6523;49.758;6.120;2023-03-13T02:53:56;1.53;;;1.30;;
12910;SDS011;6523;49.758;6.120;2023-03-13T02:56:24;1.63;;;1.23;;
12910;SDS011;6523;49.758;6.120;2023-03-13T02:58:52;3.47;;;1.50;;
12910;SDS011;6523;49.758;6.120;2023-03-13T03:01:17;1.50;;;1.40;;
12910;SDS011;6523;49.758;6.120;2023-03-13T03:03:43;1.60;;;1.50;;
12910;SDS011;6523;49.758;6.120;2023-03-13T03:06:08;2.20;;;2.00;;
12910;SDS011;6523;49.758;6.120;2023-03-13T03:08:34;2.57;;;1.70;;
12910;SDS011;6523;49.758;6.120;2023-03-13T03:11:00;3.43;;;2.20;;
12910;SDS011;6523;49.758;6.120;2023-03-13T03:13:27;2.93;;;2.20;;
12910;SDS011;6523;49.758;6.120;2023-03-13T03:15:52;4.03;;;2.53;;
12910;SDS011;6523;49.758;6.120;2023-03-13T03:18:18;3.03;;;2.17;;
12910;SDS011;6523;49.758;6.120;2023-03-13T03:20:44;3.90;;;2.73;;
12910;SDS011;6523;49.758;6.120;2023-03-13T03:23:09;3.47;;;2.83;;
12910;SDS011;6523;49.758;6.120;2023-03-13T03:25:35;4.57;;;3.30;;
12910;SDS011;6523;49.758;6.120;2023-03-13T03:28:00;4.70;;;3.33;;
12910;SDS011;6523;49.758;6.120;2023-03-13T03:30:26;5.17;;;3.10;;
12910;SDS011;6523;49.758;6.120;2023-03-13T03:32:51;4.73;;;3.63;;
12910;SDS011;6523;49.758;6.120;2023-03-13T03:35:17;4.40;;;3.30;;
12910;SDS011;6523;49.758;6.120;2023-03-13T03:37:42;4.10;;;3.67;;
12910;SDS011;6523;49.758;6.120;2023-03-13T03:40:08;8.40;;;3.70;;
12910;SDS011;6523;49.758;6.120;2023-03-13T03:42:35;4.93;;;3.47;;
12910;SDS011;6523;49.758;6.120;2023-03-13T03:45:00;4.73;;;3.67;;
12910;SDS011;6523;49.758;6.120;2023-03-13T03:47:26;4.47;;;3.23;;
12910;SDS011;6523;49.758;6.120;2023-03-13T03:49:51;5.80;;;3.50;;
12910;SDS011;6523;49.758;6.120;2023-03-13T03:52:17;3.53;;;3.13;;
12910;SDS011;6523;49.758;6.120;2023-03-13T03:54:43;3.17;;;2.83;;
12910;SDS011;6523;49.758;6.120;2023-03-13T03:57:08;3.37;;;3.03;;
12910;SDS011;6523;49.758;6.120;2023-03-13T03:59:34;3.73;;;3.03;;
12910;SDS011;6523;49.758;6.120;2023-03-13T04:01:59;4.37;;;2.77;;
12910;SDS011;6523;49.758;6.120;2023-03-13T04:04:25;3.97;;;2.53;;
12910;SDS011;6523;49.758;6.120;2023-03-13T04:06:50;2.43;;;2.23;;
12910;SDS011;6523;49.758;6.120;2023-03-13T04:09:16;4.17;;;2.67;;
12910;SDS011;6523;49.758;6.120;2023-03-13T04:11:41;2.87;;;2.33;;
12910;SDS011;6523;49.758;6.120;2023-03-13T04:14:07;2.80;;;2.60;;
12910;SDS011;6523;49.758;6.120;2023-03-13T04:16:33;2.77;;;2.37;;
12910;SDS011;6523;49.758;6.120;2023-03-13T04:18:58;2.33;;;2.13;;
12910;SDS011;6523;49.758;6.120;2023-03-13T04:21:24;2.57;;;2.23;;
12910;SDS011;6523;49.758;6.120;2023-03-13T04:23:49;3.03;;;2.00;;
12910;SDS011;6523;49.758;6.120;2023-03-13T04:26:15;2.47;;;2.13;;
12910;SDS011;6523;49.758;6.120;2023-03-13T04:28:40;2.50;;;2.30;;
12910;SDS011;6523;49.758;6.120;2023-03-13T04:31:06;3.07;;;2.23;;
12910;SDS011;6523;49.758;6.120;2023-03-13T04:33:32;2.47;;;2.10;;
12910;SDS011;6523;49.758;6.120;2023-03-13T04:35:58;3.00;;;1.87;;
12910;SDS011;6523;49.758;6.120;2023-03-13T04:38:23;2.47;;;2.10;;
12910;SDS011;6523;49.758;6.120;2023-03-13T04:40:49;2.60;;;2.17;;
12910;SDS011;6523;49.758;6.120;2023-03-13T04:43:14;3.37;;;2.03;;
12910;SDS011;6523;49.758;6.120;2023-03-13T04:45:40;2.53;;;1.87;;
12910;SDS011;6523;49.758;6.120;2023-03-13T04:48:06;2.87;;;2.30;;
12910;SDS011;6523;49.758;6.120;2023-03-13T04:50:31;2.80;;;2.50;;
12910;SDS011;6523;49.758;6.120;2023-03-13T04:52:57;3.13;;;2.87;;
12910;SDS011;6523;49.758;6.120;2023-03-13T04:55:22;3.30;;;2.60;;
12910;SDS011;6523;49.758;6.120;2023-03-13T04:57:48;2.27;;;2.07;;
12910;SDS011;6523;49.758;6.120;2023-03-13T05:00:13;3.37;;;3.07;;
12910;SDS011;6523;49.758;6.120;2023-03-13T05:02:39;3.63;;;2.40;;
12910;SDS011;6523;49.758;6.120;2023-03-13T05:05:05;3.97;;;2.73;;
12910;SDS011;6523;49.758;6.120;2023-03-13T05:07:30;3.43;;;2.80;;
12910;SDS011;6523;49.758;6.120;2023-03-13T05:09:56;3.23;;;2.57;;
12910;SDS011;6523;49.758;6.120;2023-03-13T05:12:21;3.67;;;2.73;;
12910;SDS011;6523;49.758;6.120;2023-03-13T05:14:47;3.23;;;2.90;;
12910;SDS011;6523;49.758;6.120;2023-03-13T05:17:14;4.63;;;2.60;;
12910;SDS011;6523;49.758;6.120;2023-03-13T05:19:41;4.77;;;3.17;;
12910;SDS011;6523;49.758;6.120;2023-03-13T05:22:07;3.77;;;3.13;;
12910;SDS011;6523;49.758;6.120;2023-03-13T05:24:32;3.17;;;2.80;;
12910;SDS011;6523;49.758;6.120;2023-03-13T05:26:58;4.30;;;3.50;;
12910;SDS011;6523;49.758;6.120;2023-03-13T05:29:23;4.17;;;2.93;;
12910;SDS011;6523;49.758;6.120;2023-03-13T05:31:49;6.00;;;3.27;;
12910;SDS011;6523;49.758;6.120;2023-03-13T05:34:14;4.50;;;3.10;;
12910;SDS011;6523;49.758;6.120;2023-03-13T05:36:40;5.60;;;3.20;;
12910;SDS011;6523;49.758;6.120;2023-03-13T05:39:06;4.93;;;3.17;;
12910;SDS011;6523;49.758;6.120;2023-03-13T05:41:31;5.27;;;3.80;;
12910;SDS011;6523;49.758;6.120;2023-03-13T05:43:57;4.07;;;3.37;;
12910;SDS011;6523;49.758;6.120;2023-03-13T05:46:22;5.17;;;3.00;;
12910;SDS011;6523;49.758;6.120;2023-03-13T05:48:48;5.40;;;3.63;;
12910;SDS011;6523;49.758;6.120;2023-03-13T05:51:13;4.87;;;3.40;;
12910;SDS011;6523;49.758;6.120;2023-03-13T05:53:39;5.43;;;3.47;;
12910;SDS011;6523;49.758;6.120;2023-03-13T05:56:05;6.07;;;3.80;;
12910;SDS011;6523;49.758;6.120;2023-03-13T05:58:31;4.13;;;3.30;;
12910;SDS011;6523;49.758;6.120;2023-03-13T06:00:56;7.83;;;3.93;;
12910;SDS011;6523;49.758;6.120;2023-03-13T06:03:22;4.67;;;3.43;;
12910;SDS011;6523;49.758;6.120;2023-03-13T06:05:47;5.23;;;4.00;;
12910;SDS011;6523;49.758;6.120;2023-03-13T06:08:13;5.70;;;3.40;;
12910;SDS011;6523;49.758;6.120;2023-03-13T06:10:38;5.83;;;3.77;;
12910;SDS011;6523;49.758;6.120;2023-03-13T06:13:04;9.57;;;3.93;;
12910;SDS011;6523;49.758;6.120;2023-03-13T06:15:29;6.77;;;3.50;;
12910;SDS011;6523;49.758;6.120;2023-03-13T06:17:55;6.20;;;4.00;;
12910;SDS011;6523;49.758;6.120;2023-03-13T06:20:21;7.77;;;3.90;;
12910;SDS011;6523;49.758;6.120;2023-03-13T06:22:46;7.03;;;4.47;;
12910;SDS011;6523;49.758;6.120;2023-03-13T06:25:12;5.43;;;3.60;;
12910;SDS011;6523;49.758;6.120;2023-03-13T06:27:39;6.53;;;3.23;;
12910;SDS011;6523;49.758;6.120;2023-03-13T06:30:05;3.57;;;3.00;;
12910;SDS011;6523;49.758;6.120;2023-03-13T06:32:33;6.83;;;3.73;;
12910;SDS011;6523;49.758;6.120;2023-03-13T06:34:58;8.10;;;3.43;;
12910;SDS011;6523;49.758;6.120;2023-03-13T06:37:24;4.50;;;3.23;;
12910;SDS011;6523;49.758;6.120;2023-03-13T06:39:49;8.23;;;3.90;;
12910;SDS011;6523;49.758;6.120;2023-03-13T06:42:15;5.07;;;3.47;;
12910;SDS011;6523;49.758;6.120;2023-03-13T06:44:40;7.33;;;3.80;;
12910;SDS011;6523;49.758;6.120;2023-03-13T06:47:06;7.60;;;4.10;;
12910;SDS011;6523;49.758;6.120;2023-03-13T06:49:32;5.40;;;3.30;;
12910;SDS011;6523;49.758;6.120;2023-03-13T06:51:57;6.27;;;3.70;;
12910;SDS011;6523;49.758;6.120;2023-03-13T06:54:23;5.53;;;3.70;;
12910;SDS011;6523;49.758;6.120;2023-03-13T06:56:49;4.57;;;3.70;;
12910;SDS011;6523;49.758;6.120;2023-03-13T06:59:14;5.87;;;3.30;;
12910;SDS011;6523;49.758;6.120;2023-03-13T07:01:40;4.77;;;3.63;;
12910;SDS011;6523;49.758;6.120;2023-03-13T07:04:06;5.00;;;3.20;;
12910;SDS011;6523;49.758;6.120;2023-03-13T07:06:33;4.73;;;3.23;;
12910;SDS011;6523;49.758;6.120;2023-03-13T07:08:59;4.20;;;3.30;;
12910;SDS011;6523;49.758;6.120;2023-03-13T07:11:24;5.33;;;3.30;;
12910;SDS011;6523;49.758;6.120;2023-03-13T07:13:51;6.93;;;3.77;;
12910;SDS011;6523;49.758;6.120;2023-03-13T07:16:19;3.93;;;3.40;;
12910;SDS011;6523;49.758;6.120;2023-03-13T07:18:44;7.23;;;3.40;;
12910;SDS011;6523;49.758;6.120;2023-03-13T07:21:10;6.20;;;3.23;;
12910;SDS011;6523;49.758;6.120;2023-03-13T07:23:36;8.87;;;3.60;;
12910;SDS011;6523;49.758;6.120;2023-03-13T07:26:20;5.40;;;3.40;;
12910;SDS011;6523;49.758;6.120;2023-03-13T07:28:46;4.73;;;3.50;;
12910;SDS011;6523;49.758;6.120;2023-03-13T07:33:39;9.43;;;3.90;;
12910;SDS011;6523;49.758;6.120;2023-03-13T07:36:05;7.07;;;3.43;;
12910;SDS011;6523;49.758;6.120;2023-03-13T07:38:31;7.40;;;3.77;;
12910;SDS011;6523;49.758;6.120;2023-03-13T07:40:57;8.77;;;3.37;;
12910;SDS011;6523;49.758;6.120;2023-03-13T07:43:23;4.17;;;3.13;;
12910;SDS011;6523;49.758;6.120;2023-03-13T07:48:19;7.33;;;3.90;;
12910;SDS011;6523;49.758;6.120;2023-03-13T07:50:46;5.97;;;3.60;;
12910;SDS011;6523;49.758;6.120;2023-03-13T07:53:12;8.33;;;4.30;;
12910;SDS011;6523;49.758;6.120;2023-03-13T07:55:37;7.00;;;3.20;;
12910;SDS011;6523;49.758;6.120;2023-03-13T07:58:03;6.67;;;3.90;;
12910;SDS011;6523;49.758;6.120;2023-03-13T08:00:29;7.07;;;3.73;;
12910;SDS011;6523;49.758;6.120;2023-03-13T08:02:54;6.30;;;3.60;;
12910;SDS011;6523;49.758;6.120;2023-03-13T08:05:20;5.33;;;3.53;;
12910;SDS011;6523;49.758;6.120;2023-03-13T08:07:46;6.20;;;4.20;;
12910;SDS011;6523;49.758;6.120;2023-03-13T08:10:11;6.20;;;4.00;;
12910;SDS011;6523;49.758;6.120;2023-03-13T08:12:37;8.90;;;4.60;;
12910;SDS011;6523;49.758;6.120;2023-03-13T08:15:02;5.83;;;4.27;;
12910;SDS011;6523;49.758;6.120;2023-03-13T08:17:28;6.00;;;3.80;;
12910;SDS011;6523;49.758;6.120;2023-03-13T08:19:54;5.60;;;3.87;;
12910;SDS011;6523;49.758;6.120;2023-03-13T08:22:20;6.50;;;4.43;;
12910;SDS011;6523;49.758;6.120;2023-03-13T08:24:46;7.27;;;3.97;;
12910;SDS011;6523;49.758;6.120;2023-03-13T08:27:11;5.60;;;4.30;;
12910;SDS011;6523;49.758;6.120;2023-03-13T08:29:37;4.53;;;3.87;;
12910;SDS011;6523;49.758;6.120;2023-03-13T08:32:03;8.70;;;4.00;;
12910;SDS011;6523;49.758;6.120;2023-03-13T08:34:29;5.27;;;4.00;;
12910;SDS011;6523;49.758;6.120;2023-03-13T08:36:54;5.63;;;3.90;;
12910;SDS011;6523;49.758;6.120;2023-03-13T08:39:20;7.03;;;3.73;;
12910;SDS011;6523;49.758;6.120;2023-03-13T08:41:46;6.40;;;4.13;;
12910;SDS011;6523;49.758;6.120;2023-03-13T08:44:13;6.33;;;3.90;;
12910;SDS011;6523;49.758;6.120;2023-03-13T08:46:40;5.80;;;4.10;;
12910;SDS011;6523;49.758;6.120;2023-03-13T08:49:07;5.23;;;3.90;;
12910;SDS011;6523;49.758;6.120;2023-03-13T08:51:37;4.23;;;3.53;;
12910;SDS011;6523;49.758;6.120;2023-03-13T08:54:03;5.53;;;3.70;;
12910;SDS011;6523;49.758;6.120;2023-03-13T08:56:30;5.37;;;4.50;;
12910;SDS011;6523;49.758;6.120;2023-03-13T08:58:57;4.30;;;3.90;;
12910;SDS011;6523;49.758;6.120;2023-03-13T09:01:26;6.27;;;4.30;;
12910;SDS011;6523;49.758;6.120;2023-03-13T09:03:53;6.27;;;4.47;;
12910;SDS011;6523;49.758;6.120;2023-03-13T09:06:19;6.40;;;4.00;;
12910;SDS011;6523;49.758;6.120;2023-03-13T09:08:45;6.00;;;4.27;;
12910;SDS011;6523;49.758;6.120;2023-03-13T09:11:15;6.87;;;3.63;;
12910;SDS011;6523;49.758;6.120;2023-03-13T09:13:43;7.33;;;3.60;;
12910;SDS011;6523;49.758;6.120;2023-03-13T09:16:12;7.30;;;4.13;;
12910;SDS011;6523;49.758;6.120;2023-03-13T09:18:39;4.97;;;3.60;;
12910;SDS011;6523;49.758;6.120;2023-03-13T09:21:06;6.57;;;3.83;;
12910;SDS011;6523;49.758;6.120;2023-03-13T09:23:33;6.13;;;3.77;;
12910;SDS011;6523;49.758;6.120;2023-03-13T09:25:59;7.70;;;4.20;;
12910;SDS011;6523;49.758;6.120;2023-03-13T09:28:25;8.27;;;4.00;;
12910;SDS011;6523;49.758;6.120;2023-03-13T09:30:51;5.77;;;3.87;;
12910;SDS011;6523;49.758;6.120;2023-03-13T09:33:17;4.53;;;3.20;;
12910;SDS011;6523;49.758;6.120;2023-03-13T09:35:44;4.43;;;3.50;;
12910;SDS011;6523;49.758;6.120;2023-03-13T09:38:14;5.23;;;3.10;;
12910;SDS011;6523;49.758;6.120;2023-03-13T09:40:43;5.17;;;3.20;;
12910;SDS011;6523;49.758;6.120;2023-03-13T09:43:24;3.97;;;2.63;;
12910;SDS011;6523;49.758;6.120;2023-03-13T09:45:57;6.50;;;2.90;;
12910;SDS011;6523;49.758;6.120;2023-03-13T09:48:28;3.30;;;2.77;;
12910;SDS011;6523;49.758;6.120;2023-03-13T09:51:02;5.17;;;2.67;;
12910;SDS011;6523;49.758;6.120;2023-03-13T09:56:28;4.70;;;2.93;;
12910;SDS011;6523;49.758;6.120;2023-03-13T09:58:58;3.77;;;2.77;;
12910;SDS011;6523;49.758;6.120;2023-03-13T10:01:30;4.40;;;2.83;;
12910;SDS011;6523;49.758;6.120;2023-03-13T10:04:00;4.47;;;2.53;;
12910;SDS011;6523;49.758;6.120;2023-03-13T10:06:32;2.73;;;2.53;;
12910;SDS011;6523;49.758;6.120;2023-03-13T10:09:18;4.40;;;2.80;;
12910;SDS011;6523;49.758;6.120;2023-03-13T10:12:04;3.90;;;2.50;;
12910;SDS011;6523;49.758;6.120;2023-03-13T10:17:00;6.13;;;2.90;;
12910;SDS011;6523;49.758;6.120;2023-03-13T10:19:36;3.27;;;2.77;;
12910;SDS011;6523;49.758;6.120;2023-03-13T10:22:11;3.90;;;2.57;;
12910;SDS011;6523;49.758;6.120;2023-03-13T10:24:57;4.13;;;2.47;;
12910;SDS011;6523;49.758;6.120;2023-03-13T10:27:24;4.33;;;2.60;;
12910;SDS011;6523;49.758;6.120;2023-03-13T10:29:50;5.63;;;3.20;;
12910;SDS011;6523;49.758;6.120;2023-03-13T10:32:16;5.10;;;2.90;;
12910;SDS011;6523;49.758;6.120;2023-03-13T10:35:03;5.73;;;2.87;;
12910;SDS011;6523;49.758;6.120;2023-03-13T10:37:30;4.73;;;2.80;;
12910;SDS011;6523;49.758;6.120;2023-03-13T10:40:11;3.97;;;3.10;;
12910;SDS011;6523;49.758;6.120;2023-03-13T10:42:41;3.60;;;2.73;;
12910;SDS011;6523;49.758;6.120;2023-03-13T10:45:12;3.57;;;3.10;;
12910;SDS011;6523;49.758;6.120;2023-03-13T10:47:40;5.63;;;2.80;;
12910;SDS011;6523;49.758;6.120;2023-03-13T10:50:06;4.50;;;2.37;;
12910;SDS011;6523;49.758;6.120;2023-03-13T10:52:33;6.33;;;2.90;;
12910;SDS011;6523;49.758;6.120;2023-03-13T10:55:09;4.07;;;2.83;;
12910;SDS011;6523;49.758;6.120;2023-03-13T10:57:42;2.80;;;2.33;;
12910;SDS011;6523;49.758;6.120;2023-03-13T11:00:34;3.20;;;2.77;;
12910;SDS011;6523;49.758;6.120;2023-03-13T11:03:03;3.20;;;2.53;;
12910;SDS011;6523;49.758;6.120;2023-03-13T11:05:40;5.23;;;2.43;;
12910;SDS011;6523;49.758;6.120;2023-03-13T11:08:11;5.03;;;2.20;;
12910;SDS011;6523;49.758;6.120;2023-03-13T11:10:52;3.77;;;2.70;;
12910;SDS011;6523;49.758;6.120;2023-03-13T11:13:35;4.20;;;2.77;;
12910;SDS011;6523;49.758;6.120;2023-03-13T11:18:53;3.40;;;2.50;;
12910;SDS011;6523;49.758;6.120;2023-03-13T11:24:06;3.10;;;2.10;;
12910;SDS011;6523;49.758;6.120;2023-03-13T11:26:41;3.37;;;2.70;;
12910;SDS011;6523;49.758;6.120;2023-03-13T11:29:41;3.97;;;2.60;;
12910;SDS011;6523;49.758;6.120;2023-03-13T11:32:21;4.73;;;2.73;;
12910;SDS011;6523;49.758;6.120;2023-03-13T11:34:57;3.53;;;3.07;;
12910;SDS011;6523;49.758;6.120;2023-03-13T11:37:27;4.80;;;2.90;;
12910;SDS011;6523;49.758;6.120;2023-03-13T11:54:34;4.73;;;3.00;;
12910;SDS011;6523;49.758;6.120;2023-03-13T11:59:50;3.93;;;2.93;;
12910;SDS011;6523;49.758;6.120;2023-03-13T12:02:25;2.70;;;2.50;;
12910;SDS011;6523;49.758;6.120;2023-03-13T12:04:57;3.87;;;2.77;;
12910;SDS011;6523;49.758;6.120;2023-03-13T12:07:33;3.57;;;2.83;;
12910;SDS011;6523;49.758;6.120;2023-03-13T12:10:46;3.40;;;2.83;;
12910;SDS011;6523;49.758;6.120;2023-03-13T12:13:10;2.90;;;2.50;;
12910;SDS011;6523;49.758;6.120;2023-03-13T12:15:43;2.60;;;2.40;;
12910;SDS011;6523;49.758;6.120;2023-03-13T12:18:29;3.27;;;2.40;;
12910;SDS011;6523;49.758;6.120;2023-03-13T12:23:45;3.30;;;2.10;;
12910;SDS011;6523;49.758;6.120;2023-03-13T12:26:13;2.57;;;1.80;;
12910;SDS011;6523;49.758;6.120;2023-03-13T12:28:44;2.60;;;2.10;;
12910;SDS011;6523;49.758;6.120;2023-03-13T12:36:43;2.73;;;2.27;;
12910;SDS011;6523;49.758;6.120;2023-03-13T12:39:33;2.73;;;1.90;;
12910;SDS011;6523;49.758;6.120;2023-03-13T12:44:46;2.40;;;1.80;;
12910;SDS011;6523;49.758;6.120;2023-03-13T12:55:26;1.87;;;1.70;;
12910;SDS011;6523;49.758;6.120;2023-03-13T13:00:47;4.63;;;2.30;;
12910;SDS011;6523;49.758;6.120;2023-03-13T13:03:20;4.13;;;1.93;;
12910;SDS011;6523;49.758;6.120;2023-03-13T13:08:30;3.10;;;2.53;;
12910;SDS011;6523;49.758;6.120;2023-03-13T13:17:28;2.50;;;2.30;;
12910;SDS011;6523;49.758;6.120;2023-03-13T13:25:01;3.67;;;2.83;;
12910;SDS011;6523;49.758;6.120;2023-03-13T13:28:10;2.90;;;2.60;;
12910;SDS011;6523;49.758;6.120;2023-03-13T13:30:49;2.60;;;2.40;;
12910;SDS011;6523;49.758;6.120;2023-03-13T13:38:32;2.57;;;2.37;;
12910;SDS011;6523;49.758;6.120;2023-03-13T13:43:39;4.53;;;2.70;;
12910;SDS011;6523;49.758;6.120;2023-03-13T13:46:24;3.10;;;2.80;;
12910;SDS011;6523;49.758;6.120;2023-03-13T13:51:28;3.57;;;2.57;;
12910;SDS011;6523;49.758;6.120;2023-03-13T13:54:01;3.53;;;2.70;;
12910;SDS011;6523;49.758;6.120;2023-03-13T13:59:10;3.30;;;2.63;;
12910;SDS011;6523;49.758;6.120;2023-03-13T14:01:36;3.03;;;2.73;;
12910;SDS011;6523;49.758;6.120;2023-03-13T14:06:41;2.73;;;2.40;;
12910;SDS011;6523;49.758;6.120;2023-03-13T14:09:21;2.73;;;2.37;;
12910;SDS011;6523;49.758;6.120;2023-03-13T14:11:57;3.77;;;2.50;;
12910;SDS011;6523;49.758;6.120;2023-03-13T14:14:23;2.83;;;2.33;;
12910;SDS011;6523;49.758;6.120;2023-03-13T14:16:49;2.23;;;2.03;;
12910;SDS011;6523;49.758;6.120;2023-03-13T14:19:29;3.57;;;2.27;;
12910;SDS011;6523;49.758;6.120;2023-03-13T14:22:06;2.00;;;1.80;;
12910;SDS011;6523;49.758;6.120;2023-03-13T14:24:33;2.10;;;2.00;;
12910;SDS011;6523;49.758;6.120;2023-03-13T14:26:59;2.47;;;2.10;;
12910;SDS011;6523;49.758;6.120;2023-03-13T14:29:25;3.50;;;2.20;;
12910;SDS011;6523;49.758;6.120;2023-03-13T14:34:18;1.77;;;1.67;;
12910;SDS011;6523;49.758;6.120;2023-03-13T14:36:48;2.00;;;1.70;;
12910;SDS011;6523;49.758;6.120;2023-03-13T14:41:54;2.47;;;1.70;;
12910;SDS011;6523;49.758;6.120;2023-03-13T14:44:26;2.03;;;1.40;;
12910;SDS011;6523;49.758;6.120;2023-03-13T14:46:54;1.63;;;1.40;;
12910;SDS011;6523;49.758;6.120;2023-03-13T14:49:44;1.30;;;1.20;;
12910;SDS011;6523;49.758;6.120;2023-03-13T14:52:23;2.50;;;1.50;;
12910;SDS011;6523;49.758;6.120;2023-03-13T14:54:54;2.63;;;1.40;;
12910;SDS011;6523;49.758;6.120;2023-03-13T14:57:21;2.23;;;1.47;;
12910;SDS011;6523;49.758;6.120;2023-03-13T14:59:49;2.83;;;1.70;;
12910;SDS011;6523;49.758;6.120;2023-03-13T15:04:58;3.33;;;1.40;;
12910;SDS011;6523;49.758;6.120;2023-03-13T15:12:46;3.97;;;1.90;;
12910;SDS011;6523;49.758;6.120;2023-03-13T15:15:12;1.93;;;1.30;;
12910;SDS011;6523;49.758;6.120;2023-03-13T15:17:38;3.17;;;1.30;;
12910;SDS011;6523;49.758;6.120;2023-03-13T15:20:04;3.67;;;1.33;;
12910;SDS011;6523;49.758;6.120;2023-03-13T15:22:35;2.67;;;1.70;;
12910;SDS011;6523;49.758;6.120;2023-03-13T15:25:03;2.77;;;1.70;;
12910;SDS011;6523;49.758;6.120;2023-03-13T15:27:37;2.53;;;2.30;;
12910;SDS011;6523;49.758;6.120;2023-03-13T15:30:03;3.70;;;1.40;;
12910;SDS011;6523;49.758;6.120;2023-03-13T15:32:31;1.50;;;1.40;;
12910;SDS011;6523;49.758;6.120;2023-03-13T15:34:59;3.73;;;1.77;;
12910;SDS011;6523;49.758;6.120;2023-03-13T15:37:26;3.73;;;1.37;;
12910;SDS011;6523;49.758;6.120;2023-03-13T15:39:53;3.80;;;1.30;;
12910;SDS011;6523;49.758;6.120;2023-03-13T15:42:19;2.63;;;1.30;;
12910;SDS011;6523;49.758;6.120;2023-03-13T15:44:46;2.60;;;1.47;;
12910;SDS011;6523;49.758;6.120;2023-03-13T15:47:13;3.20;;;1.50;;
12910;SDS011;6523;49.758;6.120;2023-03-13T15:49:41;3.33;;;1.17;;
12910;SDS011;6523;49.758;6.120;2023-03-13T15:52:14;2.83;;;1.40;;
12910;SDS011;6523;49.758;6.120;2023-03-13T15:54:43;3.20;;;1.50;;
12910;SDS011;6523;49.758;6.120;2023-03-13T15:57:11;3.10;;;1.40;;
12910;SDS011;6523;49.758;6.120;2023-03-13T15:59:39;2.87;;;1.63;;
12910;SDS011;6523;49.758;6.120;2023-03-13T16:02:10;3.97;;;1.47;;
12910;SDS011;6523;49.758;6.120;2023-03-13T16:04:39;1.67;;;1.20;;
12910;SDS011;6523;49.758;6.120;2023-03-13T16:07:08;3.20;;;1.57;;
12910;SDS011;6523;49.758;6.120;2023-03-13T16:09:35;2.73;;;1.40;;
12910;SDS011;6523;49.758;6.120;2023-03-13T16:12:01;2.73;;;1.70;;
12910;SDS011;6523;49.758;6.120;2023-03-13T16:14:26;5.70;;;1.47;;
12910;SDS011;6523;49.758;6.120;2023-03-13T16:16:52;2.87;;;1.30;;
12910;SDS011;6523;49.758;6.120;2023-03-13T16:19:17;2.97;;;1.77;;
12910;SDS011;6523;49.758;6.120;2023-03-13T16:21:43;3.07;;;1.37;;
12910;SDS011;6523;49.758;6.120;2023-03-13T16:24:12;4.90;;;1.60;;
12910;SDS011;6523;49.758;6.120;2023-03-13T16:26:38;2.23;;;1.40;;
12910;SDS011;6523;49.758;6.120;2023-03-13T16:29:04;4.20;;;1.40;;
12910;SDS011;6523;49.758;6.120;2023-03-13T16:31:30;3.17;;;1.33;;
12910;SDS011;6523;49.758;6.120;2023-03-13T16:33:57;4.07;;;1.70;;
12910;SDS011;6523;49.758;6.120;2023-03-13T16:36:24;2.20;;;1.50;;
12910;SDS011;6523;49.758;6.120;2023-03-13T16:38:52;1.70;;;1.50;;
12910;SDS011;6523;49.758;6.120;2023-03-13T16:41:19;3.20;;;1.90;;
12910;SDS011;6523;49.758;6.120;2023-03-13T16:43:46;4.33;;;1.67;;
12910;SDS011;6523;49.758;6.120;2023-03-13T16:48:45;2.53;;;1.33;;
12910;SDS011;6523;49.758;6.120;2023-03-13T16:51:21;2.83;;;1.40;;
12910;SDS011;6523;49.758;6.120;2023-03-13T16:53:49;2.37;;;1.50;;
12910;SDS011;6523;49.758;6.120;2023-03-13T16:58:55;2.67;;;1.30;;
12910;SDS011;6523;49.758;6.120;2023-03-13T17:01:21;1.77;;;1.30;;
12910;SDS011;6523;49.758;6.120;2023-03-13T17:03:49;2.97;;;1.20;;
12910;SDS011;6523;49.758;6.120;2023-03-13T17:06:17;1.40;;;1.10;;
12910;SDS011;6523;49.758;6.120;2023-03-13T17:08:44;3.10;;;1.70;;